Time;durP1;ratioP1;P1;durP2;ratioP2;P2;SDS_P1;SDS_P2;PMS_P1;PMS_P2;Temp;Humidity;BMP_temperature;BMP_pressure;BME280_temperature;BME280_humidity;BME280_pressure;Samples;Min_cycle;Max_cycle;Signal;HPM_P1;HPM_P2
2022/06/24 00:00:42;;;;;;;10.75;5.63;;;22.20;88.60;;;;;;5068120;28;20075;-75
2022/06/24 00:03:19;;;;;;;10.98;6.07;;;22.20;89.10;;;;;;5066275;28;20056;-76
2022/06/24 00:05:47;;;;;;;10.23;5.65;;;22.20;89.60;;;;;;5067344;28;20045;-76
2022/06/24 00:08:12;;;;;;;9.43;5.60;;;22.20;89.60;;;;;;5067906;28;20071;-75
2022/06/24 00:10:39;;;;;;;11.07;5.57;;;22.20;89.80;;;;;;5068069;28;20495;-76
2022/06/24 00:13:06;;;;;;;10.02;5.63;;;22.10;90.00;;;;;;5070830;28;20084;-75
2022/06/24 00:15:34;;;;;;;9.63;5.47;;;22.00;90.20;;;;;;5067760;28;20124;-76
2022/06/24 00:18:17;;;;;;;9.85;5.65;;;22.00;90.40;;;;;;5064139;28;20516;-75
2022/06/24 00:20:45;;;;;;;8.30;5.10;;;21.90;90.60;;;;;;5070168;28;20541;-75
2022/06/24 00:23:12;;;;;;;9.20;5.22;;;21.90;90.70;;;;;;5066103;28;20104;-75
2022/06/24 00:25:38;;;;;;;8.48;5.45;;;21.80;90.90;;;;;;5070422;28;20428;-75
2022/06/24 00:28:08;;;;;;;8.63;5.60;;;21.70;91.20;;;;;;5059526;28;20036;-76
2022/06/24 00:30:42;;;;;;;8.00;5.43;;;21.70;91.40;;;;;;5063810;28;20032;-75
2022/06/24 00:33:11;;;;;;;7.80;6.07;;;21.70;91.60;;;;;;5061070;28;20280;-76
2022/06/24 00:35:42;;;;;;;10.30;6.55;;;21.60;91.60;;;;;;5064420;28;20099;-76
2022/06/24 00:38:25;;;;;;;8.38;5.93;;;21.60;91.90;;;;;;5059909;28;20037;-76
2022/06/24 00:40:54;;;;;;;8.38;6.10;;;21.60;92.20;;;;;;5056731;28;20531;-75
2022/06/24 00:43:32;;;;;;;7.90;6.18;;;21.60;92.30;;;;;;5065434;28;20044;-76
2022/06/24 00:46:09;;;;;;;9.68;5.68;;;21.50;92.60;;;;;;5062802;28;20116;-76
2022/06/24 00:48:38;;;;;;;10.80;5.70;;;21.50;92.90;;;;;;5055950;28;20055;-76
2022/06/24 00:51:07;;;;;;;8.50;5.88;;;21.50;93.00;;;;;;5066844;28;20085;-76
2022/06/24 00:53:47;;;;;;;11.32;5.68;;;21.50;93.10;;;;;;5041484;28;20052;-76
2022/06/24 00:56:15;;;;;;;8.05;5.90;;;21.50;93.30;;;;;;5058559;28;20049;-76
2022/06/24 00:58:53;;;;;;;8.55;5.55;;;21.50;93.30;;;;;;5066005;28;20056;-76
2022/06/24 01:01:29;;;;;;;7.20;5.50;;;21.50;93.50;;;;;;5065170;28;20052;-76
2022/06/24 01:03:56;;;;;;;7.35;5.50;;;21.50;93.40;;;;;;5058150;28;20124;-76
2022/06/24 01:06:22;;;;;;;7.15;5.00;;;21.50;93.40;;;;;;5057543;28;20036;-76
2022/06/24 01:08:48;;;;;;;8.20;4.80;;;21.50;93.20;;;;;;5053728;28;20037;-77
2022/06/24 01:11:27;;;;;;;6.75;4.97;;;21.50;93.00;;;;;;5062372;28;20407;-76
2022/06/24 01:13:54;;;;;;;7.50;4.75;;;21.50;92.80;;;;;;5051740;28;20045;-76
2022/06/24 01:16:21;;;;;;;5.20;4.60;;;21.40;92.70;;;;;;5058204;28;20075;-75
2022/06/24 01:18:53;;;;;;;8.27;4.78;;;21.40;92.60;;;;;;5055927;28;20537;-76
2022/06/24 01:21:37;;;;;;;;;;;21.40;92.50;;;;;;5062678;28;20040;-76
2022/06/24 01:24:11;;;;;;;9.25;6.40;;;21.30;92.40;;;;;;5058312;28;19921;-76
2022/06/24 01:26:41;;;;;;;9.05;5.63;;;21.20;92.60;;;;;;5046275;28;20409;-76
2022/06/24 01:29:07;;;;;;;8.60;5.85;;;21.20;92.70;;;;;;5063241;28;20037;-76
2022/06/24 01:31:33;;;;;;;10.00;5.57;;;21.10;92.80;;;;;;5064469;28;20043;-76
2022/06/24 01:33:59;;;;;;;10.65;5.78;;;21.10;92.90;;;;;;5060870;28;20499;-76
2022/06/24 01:36:25;;;;;;;9.30;5.97;;;21.00;93.00;;;;;;5049815;28;20041;-76
2022/06/24 01:38:51;;;;;;;8.65;5.60;;;20.90;93.20;;;;;;5062879;28;20090;-76
2022/06/24 01:41:17;;;;;;;7.35;4.88;;;20.90;93.30;;;;;;5066497;28;20127;-76
2022/06/24 01:43:43;;;;;;;8.45;4.65;;;20.90;93.40;;;;;;5065908;28;20047;-75
2022/06/24 01:46:11;;;;;;;8.18;5.60;;;20.90;93.50;;;;;;5046450;28;20038;-75
2022/06/24 01:48:38;;;;;;;8.82;5.03;;;20.80;93.50;;;;;;5065568;28;20093;-76
2022/06/24 01:51:04;;;;;;;7.43;5.20;;;20.90;93.50;;;;;;5059850;28;20041;-76
2022/06/24 01:53:30;;;;;;;6.95;4.97;;;20.90;93.40;;;;;;5066826;28;20045;-75
2022/06/24 01:55:55;;;;;;;8.82;4.68;;;20.90;93.20;;;;;;5064372;28;20124;-76
2022/06/24 01:58:21;;;;;;;7.90;4.70;;;20.90;93.10;;;;;;5064348;28;20064;-76
2022/06/24 02:00:47;;;;;;;6.60;5.15;;;20.90;93.10;;;;;;5064564;28;20052;-76
2022/06/24 02:03:12;;;;;;;7.10;4.95;;;20.90;93.20;;;;;;5063883;28;20040;-76
2022/06/24 02:05:40;;;;;;;6.35;4.72;;;20.80;93.20;;;;;;5059974;28;20481;-76
2022/06/24 02:08:05;;;;;;;7.18;4.13;;;20.90;93.20;;;;;;5062004;28;20045;-76
2022/06/24 02:13:27;;;;;;;6.82;4.18;;;20.90;92.80;;;;;;5061065;28;20398;-76
2022/06/24 02:15:58;;;;;;;6.63;3.90;;;20.80;92.60;;;;;;5068076;28;20074;-75
2022/06/24 02:18:26;;;;;;;6.80;4.17;;;20.90;92.50;;;;;;5054791;28;20040;-76
2022/06/24 02:20:52;;;;;;;7.70;4.10;;;20.90;92.40;;;;;;5069052;28;20045;-75
2022/06/24 02:23:21;;;;;;;5.75;4.05;;;20.90;92.60;;;;;;5060120;28;20036;-76
2022/06/24 02:25:48;;;;;;;6.65;4.20;;;20.90;92.30;;;;;;5059836;28;20029;-76
2022/06/24 02:28:14;;;;;;;5.35;3.88;;;20.90;92.20;;;;;;5043764;28;20041;-76
2022/06/24 02:30:41;;;;;;;6.43;3.50;;;20.90;92.20;;;;;;5063273;28;20047;-76
2022/06/24 02:33:08;;;;;;;6.38;3.88;;;20.90;92.20;;;;;;5067106;28;20051;-76
2022/06/24 02:35:33;;;;;;;5.97;3.67;;;20.90;92.00;;;;;;5063841;28;20087;-76
2022/06/24 02:37:59;;;;;;;6.97;3.63;;;20.90;91.90;;;;;;5059788;28;20053;-76
2022/06/24 02:43:22;;;;;;;3.95;3.53;;;20.90;91.70;;;;;;5059546;28;20127;-76
2022/06/24 02:45:52;;;;;;;4.82;3.58;;;20.90;91.40;;;;;;5055118;28;20055;-76
2022/06/24 02:48:20;;;;;;;5.27;3.53;;;20.90;91.20;;;;;;5042042;28;20051;-76
2022/06/24 02:50:51;;;;;;;3.88;3.47;;;21.00;91.10;;;;;;5055772;28;20064;-76
2022/06/24 02:53:18;;;;;;;6.60;3.70;;;21.00;90.90;;;;;;5063632;28;20037;-76
2022/06/24 02:55:45;;;;;;;6.70;4.18;;;21.00;90.90;;;;;;5062830;28;20036;-75
2022/06/24 02:58:12;;;;;;;5.75;3.90;;;21.00;91.00;;;;;;5059290;28;20071;-76
2022/06/24 03:00:39;;;;;;;6.50;4.05;;;21.00;91.00;;;;;;5068994;28;20043;-76
2022/06/24 03:03:06;;;;;;;4.72;3.83;;;21.00;91.10;;;;;;5066024;28;20108;-75
2022/06/24 03:05:32;;;;;;;4.50;4.00;;;21.00;91.10;;;;;;5061681;28;20078;-75
2022/06/24 03:07:58;;;;;;;4.93;4.35;;;21.00;91.00;;;;;;5061994;28;20049;-75
2022/06/24 03:10:23;;;;;;;8.10;5.03;;;20.90;90.90;;;;;;5059077;28;20119;-75
2022/06/24 03:12:49;;;;;;;8.27;5.50;;;20.90;91.00;;;;;;5050333;28;20040;-76
2022/06/24 03:15:15;;;;;;;7.15;5.25;;;20.90;91.40;;;;;;5064820;28;20041;-76
2022/06/24 03:17:41;;;;;;;8.68;5.93;;;20.80;91.60;;;;;;5060497;28;20520;-76
2022/06/24 03:20:08;;;;;;;9.63;6.70;;;20.80;92.00;;;;;;5066875;28;20167;-76
2022/06/24 03:22:34;;;;;;;10.05;7.22;;;20.70;92.40;;;;;;5046706;28;20047;-76
2022/06/24 03:24:59;;;;;;;11.13;7.72;;;20.60;92.90;;;;;;5062945;28;20045;-76
2022/06/24 03:27:25;;;;;;;11.52;7.80;;;20.70;93.50;;;;;;5062212;28;20040;-76
2022/06/24 03:29:51;;;;;;;12.07;7.78;;;20.70;94.00;;;;;;5067970;28;20097;-76
2022/06/24 03:32:17;;;;;;;13.13;9.20;;;20.70;94.50;;;;;;5059352;28;20532;-76
2022/06/24 03:34:43;;;;;;;14.65;8.90;;;20.60;94.90;;;;;;5056962;28;20052;-76
2022/06/24 03:37:09;;;;;;;13.18;9.65;;;20.60;95.40;;;;;;5057682;28;20079;-76
2022/06/24 03:39:36;;;;;;;13.93;11.10;;;20.60;95.90;;;;;;5057344;28;20097;-76
2022/06/24 03:42:02;;;;;;;14.30;11.43;;;20.60;96.30;;;;;;5054499;28;20051;-76
2022/06/24 03:44:28;;;;;;;15.40;12.73;;;20.70;96.70;;;;;;5057107;28;20040;-76
2022/06/24 03:46:53;;;;;;;15.60;12.05;;;20.70;97.20;;;;;;5057079;28;20044;-76
2022/06/24 03:49:19;;;;;;;18.48;15.65;;;20.80;97.90;;;;;;5060471;28;20052;-76
2022/06/24 03:51:45;;;;;;;21.85;16.13;;;20.80;98.40;;;;;;5057103;28;20064;-76
2022/06/24 03:54:11;;;;;;;21.25;16.35;;;20.80;99.70;;;;;;5062207;28;20318;-76
2022/06/24 03:56:37;;;;;;;18.25;16.20;;;20.80;99.90;;;;;;5060366;28;20491;-76
2022/06/24 03:59:03;;;;;;;22.48;17.20;;;20.80;99.90;;;;;;5063880;28;20037;-76
2022/06/24 04:01:28;;;;;;;19.85;15.23;;;20.90;99.90;;;;;;5060251;28;20041;-76
2022/06/24 04:03:54;;;;;;;17.50;12.20;;;20.90;99.90;;;;;;5063540;28;20043;-75
2022/06/24 04:06:20;;;;;;;11.60;8.43;;;21.00;99.90;;;;;;5064293;28;20041;-76
2022/06/24 04:08:46;;;;;;;15.93;7.70;;;21.00;99.90;;;;;;5061393;28;20037;-76
2022/06/24 04:11:13;;;;;;;9.35;7.40;;;21.00;99.90;;;;;;5063245;28;20090;-76
2022/06/24 04:13:39;;;;;;;9.73;5.75;;;21.00;99.90;;;;;;5067935;28;20044;-75
2022/06/24 04:16:05;;;;;;;7.65;5.18;;;21.00;99.90;;;;;;5061362;28;20045;-75
2022/06/24 04:18:31;;;;;;;9.48;4.82;;;21.00;99.90;;;;;;5055299;28;20493;-75
2022/06/24 04:20:57;;;;;;;7.43;5.15;;;21.00;99.90;;;;;;5063265;28;20040;-75
2022/06/24 04:23:23;;;;;;;8.00;4.65;;;20.90;99.90;;;;;;5074118;28;20028;-75
2022/06/24 04:25:49;;;;;;;8.77;5.18;;;21.00;99.90;;;;;;5067514;28;20033;-75
2022/06/24 04:28:15;;;;;;;8.93;4.57;;;21.00;99.90;;;;;;5065186;28;20045;-75
2022/06/24 04:30:40;;;;;;;7.97;4.72;;;21.00;99.90;;;;;;5069179;28;20055;-75
2022/06/24 04:33:06;;;;;;;6.22;3.97;;;21.00;99.90;;;;;;5064928;28;20041;-75
2022/06/24 04:35:32;;;;;;;5.55;4.38;;;21.00;99.90;;;;;;5073065;28;20139;-75
2022/06/24 04:37:58;;;;;;;7.70;4.75;;;21.00;99.90;;;;;;5064194;28;20068;-75
2022/06/24 04:40:23;;;;;;;7.22;4.45;;;21.10;99.90;;;;;;5056366;28;20477;-75
2022/06/24 04:42:50;;;;;;;7.60;4.20;;;21.00;99.90;;;;;;5062138;28;20041;-75
2022/06/24 04:45:15;;;;;;;7.63;4.82;;;21.10;99.90;;;;;;5060359;28;20033;-75
2022/06/24 04:47:41;;;;;;;5.38;4.18;;;21.10;99.90;;;;;;5065837;28;20098;-75
2022/06/24 04:50:07;;;;;;;7.80;4.65;;;21.10;99.90;;;;;;5064399;28;20033;-75
2022/06/24 04:52:36;;;;;;;6.60;4.20;;;21.20;99.90;;;;;;5072612;28;20064;-75
2022/06/24 04:55:03;;;;;;;6.68;4.32;;;21.20;99.90;;;;;;5061465;28;20061;-75
2022/06/24 04:57:29;;;;;;;5.70;4.05;;;21.20;99.90;;;;;;5066683;28;20047;-75
2022/06/24 04:59:55;;;;;;;7.22;4.38;;;21.20;99.90;;;;;;5064218;28;20204;-75
2022/06/24 05:02:20;;;;;;;6.82;4.30;;;21.20;99.90;;;;;;5051462;28;20400;-76
2022/06/24 05:04:46;;;;;;;6.03;4.07;;;21.20;99.90;;;;;;5067863;28;20032;-76
2022/06/24 05:07:15;;;;;;;5.63;4.13;;;21.20;99.90;;;;;;5067860;28;20044;-76
2022/06/24 05:09:43;;;;;;;7.28;4.50;;;21.30;99.90;;;;;;5067298;28;20048;-76
2022/06/24 05:12:09;;;;;;;7.18;4.70;;;21.20;99.90;;;;;;5050383;28;20120;-76
2022/06/24 05:14:35;;;;;;;8.60;4.35;;;21.30;99.90;;;;;;5061008;28;20044;-75
2022/06/24 05:17:01;;;;;;;6.45;4.30;;;21.30;99.90;;;;;;5065020;28;20063;-75
2022/06/24 05:19:30;;;;;;;6.68;4.40;;;21.30;99.90;;;;;;5068524;28;20033;-76
2022/06/24 05:21:56;;;;;;;8.93;5.07;;;21.30;99.90;;;;;;5074955;28;20052;-75
2022/06/24 05:24:22;;;;;;;10.43;5.53;;;21.30;99.90;;;;;;5063082;28;20120;-76
2022/06/24 05:26:48;;;;;;;8.80;5.28;;;21.30;99.90;;;;;;5060082;28;20044;-75
2022/06/24 05:29:14;;;;;;;8.65;5.72;;;21.30;99.90;;;;;;5063128;28;20175;-74
2022/06/24 05:31:40;;;;;;;8.43;6.13;;;21.20;99.90;;;;;;5066866;28;20138;-75
2022/06/24 05:34:07;;;;;;;7.90;5.60;;;21.20;99.90;;;;;;5062529;28;20036;-74
2022/06/24 05:36:33;;;;;;;13.43;6.97;;;21.10;99.90;;;;;;5070615;28;20459;-77
2022/06/24 05:39:01;;;;;;;18.05;7.20;;;21.10;99.90;;;;;;5065590;28;20075;-77
2022/06/24 05:41:27;;;;;;;11.45;6.10;;;21.00;99.90;;;;;;5069076;28;20086;-76
2022/06/24 05:43:52;;;;;;;13.35;7.28;;;21.00;99.90;;;;;;5066294;28;20080;-76
2022/06/24 05:46:18;;;;;;;13.63;6.88;;;21.00;99.90;;;;;;5061587;28;20078;-75
2022/06/24 05:48:43;;;;;;;9.93;6.60;;;21.00;99.90;;;;;;5071351;28;20119;-75
2022/06/24 05:51:11;;;;;;;11.10;6.78;;;21.00;99.90;;;;;;5064440;28;20036;-74
2022/06/24 05:56:22;;;;;;;10.57;7.05;;;21.10;99.90;;;;;;5066180;28;20113;-74
2022/06/24 05:58:47;;;;;;;10.30;7.32;;;21.10;99.90;;;;;;5066303;28;20497;-74
2022/06/24 06:01:13;;;;;;;10.35;6.90;;;21.10;99.90;;;;;;5064745;28;20497;-74
2022/06/24 06:03:40;;;;;;;8.65;7.30;;;21.10;99.90;;;;;;5051453;28;20048;-76
2022/06/24 06:06:07;;;;;;;9.30;6.55;;;21.10;99.90;;;;;;5064864;28;20119;-75
2022/06/24 06:08:34;;;;;;;8.15;6.72;;;21.10;99.90;;;;;;5060804;28;20044;-75
2022/06/24 06:10:59;;;;;;;8.70;6.75;;;21.10;99.90;;;;;;5034058;28;20417;-75
2022/06/24 06:13:25;;;;;;;9.00;6.60;;;21.10;99.90;;;;;;5064108;28;20066;-76
2022/06/24 06:15:51;;;;;;;8.77;6.75;;;21.20;99.90;;;;;;5054386;28;20413;-75
2022/06/24 06:18:17;;;;;;;8.48;6.47;;;21.10;99.90;;;;;;5062713;28;20045;-75
2022/06/24 06:20:42;;;;;;;9.23;6.18;;;21.10;99.90;;;;;;5056066;28;20134;-74
2022/06/24 06:23:08;;;;;;;12.75;6.40;;;21.10;99.90;;;;;;5056149;28;20063;-75
2022/06/24 06:25:33;;;;;;;7.25;5.53;;;21.10;99.90;;;;;;5053186;28;20040;-75
2022/06/24 06:28:01;;;;;;;6.47;5.25;;;21.10;99.90;;;;;;5057394;28;20564;-74
2022/06/24 06:30:30;;;;;;;8.00;5.00;;;21.20;99.90;;;;;;5048223;28;20121;-75
2022/06/24 06:32:56;;;;;;;6.03;4.50;;;21.20;99.90;;;;;;5055124;28;20090;-75
2022/06/24 06:35:22;;;;;;;7.35;5.10;;;21.20;99.90;;;;;;5048989;28;20037;-75
2022/06/24 06:37:47;;;;;;;9.80;5.38;;;21.20;99.90;;;;;;5055018;28;20037;-74
2022/06/24 06:40:13;;;;;;;8.30;5.32;;;21.20;99.90;;;;;;5048227;28;20110;-75
2022/06/24 06:42:39;;;;;;;7.28;4.80;;;21.20;99.90;;;;;;5050698;28;20036;-75
2022/06/24 06:45:05;;;;;;;7.65;4.55;;;21.20;99.90;;;;;;5051130;28;20037;-75
2022/06/24 06:47:31;;;;;;;8.30;4.60;;;21.10;99.90;;;;;;5056802;28;20036;-74
2022/06/24 06:49:56;;;;;;;5.50;4.30;;;21.10;99.90;;;;;;5052010;28;20383;-75
2022/06/24 06:52:22;;;;;;;5.70;4.15;;;21.10;99.90;;;;;;5060226;28;20036;-74
2022/06/24 06:54:48;;;;;;;6.40;4.28;;;21.10;99.90;;;;;;5056951;28;20063;-75
2022/06/24 06:57:13;;;;;;;5.68;3.65;;;21.10;99.90;;;;;;5055405;28;20037;-76
2022/06/24 06:59:39;;;;;;;6.18;4.20;;;21.10;99.90;;;;;;5056723;28;20076;-76
2022/06/24 07:02:04;;;;;;;6.43;4.25;;;21.10;99.90;;;;;;5049343;28;20033;-75
2022/06/24 07:04:30;;;;;;;6.40;4.28;;;21.10;99.90;;;;;;5060780;28;20063;-75
2022/06/24 07:06:56;;;;;;;5.70;4.00;;;21.20;99.90;;;;;;5053409;28;20094;-75
2022/06/24 07:09:22;;;;;;;7.20;4.43;;;21.10;99.90;;;;;;5045197;28;20121;-77
2022/06/24 07:11:47;;;;;;;5.63;4.60;;;21.10;99.90;;;;;;5028532;28;20037;-76
2022/06/24 07:14:13;;;;;;;6.85;4.55;;;21.10;99.90;;;;;;5060012;28;20044;-77
2022/06/24 07:16:39;;;;;;;7.40;4.55;;;21.10;99.90;;;;;;5043803;28;20052;-76
2022/06/24 07:19:05;;;;;;;6.28;4.50;;;21.10;99.90;;;;;;5040065;28;20093;-76
2022/06/24 07:21:30;;;;;;;6.28;4.60;;;21.10;99.90;;;;;;5062973;28;20052;-76
2022/06/24 07:23:56;;;;;;;5.53;4.20;;;21.10;99.90;;;;;;5062253;28;20033;-76
2022/06/24 07:26:21;;;;;;;8.23;4.30;;;21.00;99.90;;;;;;5062505;28;20041;-76
2022/06/24 07:28:50;;;;;;;6.75;4.82;;;21.00;99.90;;;;;;5064679;28;20040;-77
2022/06/24 07:31:17;;;;;;;9.32;4.90;;;21.00;99.90;;;;;;5060980;28;20113;-76
2022/06/24 07:33:44;;;;;;;6.43;4.07;;;21.00;99.90;;;;;;5057264;28;20098;-75
2022/06/24 07:36:10;;;;;;;7.45;4.70;;;20.90;99.90;;;;;;5065273;28;20044;-75
2022/06/24 07:38:36;;;;;;;8.63;5.05;;;20.90;99.90;;;;;;5063751;28;20089;-76
2022/06/24 07:41:02;;;;;;;6.93;4.75;;;21.00;99.90;;;;;;5067728;28;20040;-76
2022/06/24 07:43:33;;;;;;;8.48;4.93;;;20.90;99.90;;;;;;5039902;28;20457;-76
2022/06/24 07:45:59;;;;;;;6.88;4.88;;;20.90;99.90;;;;;;5067067;28;20036;-76
2022/06/24 07:48:24;;;;;;;6.45;4.82;;;21.00;99.90;;;;;;5068926;28;20041;-76
2022/06/24 07:50:50;;;;;;;9.18;5.05;;;21.00;99.90;;;;;;5065747;28;20036;-76
2022/06/24 07:53:15;;;;;;;5.60;5.00;;;21.00;99.90;;;;;;5065615;28;20111;-76
2022/06/24 07:58:25;;;;;;;9.15;5.22;;;21.00;99.90;;;;;;5066303;28;20047;-76
2022/06/24 08:00:51;;;;;;;10.68;6.10;;;20.90;99.90;;;;;;5067549;28;20048;-76
2022/06/24 08:03:17;;;;;;;8.57;5.60;;;20.90;99.90;;;;;;5066336;28;20044;-76
2022/06/24 08:05:43;;;;;;;9.48;5.43;;;20.90;99.90;;;;;;5065599;28;20040;-76
2022/06/24 08:08:09;;;;;;;7.18;5.55;;;21.00;99.90;;;;;;5069862;28;20043;-76
2022/06/24 08:10:35;;;;;;;7.05;5.60;;;21.00;99.90;;;;;;5067222;28;20040;-75
2022/06/24 08:13:01;;;;;;;7.68;5.85;;;21.00;99.90;;;;;;5069808;28;20511;-76
2022/06/24 08:15:27;;;;;;;7.90;5.75;;;21.00;99.90;;;;;;5067869;28;20036;-76
2022/06/24 08:17:52;;;;;;;8.63;5.95;;;21.00;99.90;;;;;;5063553;28;20052;-76
2022/06/24 08:20:18;;;;;;;7.18;5.78;;;21.00;99.90;;;;;;5072195;28;20041;-75
2022/06/24 08:22:44;;;;;;;7.45;6.15;;;21.00;99.90;;;;;;5066296;28;20037;-75
2022/06/24 08:25:09;;;;;;;7.30;6.15;;;20.90;99.90;;;;;;5063950;28;20409;-76
2022/06/24 08:27:35;;;;;;;8.20;6.22;;;20.90;99.90;;;;;;5060491;28;20477;-76
2022/06/24 08:30:03;;;;;;;11.00;6.82;;;20.90;99.90;;;;;;5061796;28;20087;-76
2022/06/24 08:32:29;;;;;;;8.32;6.07;;;20.90;99.90;;;;;;5067513;28;20051;-75
2022/06/24 08:34:54;;;;;;;7.65;6.40;;;20.80;99.90;;;;;;5060049;28;20033;-75
2022/06/24 08:37:20;;;;;;;7.38;6.40;;;20.80;99.90;;;;;;5072457;28;20040;-76
2022/06/24 08:39:46;;;;;;;9.50;5.85;;;20.70;99.90;;;;;;5064843;28;20033;-76
2022/06/24 08:42:12;;;;;;;9.20;5.93;;;20.70;99.90;;;;;;5071491;28;20094;-77
2022/06/24 08:44:39;;;;;;;8.02;5.75;;;20.60;99.90;;;;;;5064428;28;20036;-76
2022/06/24 08:47:05;;;;;;;7.50;5.40;;;20.60;99.90;;;;;;5053434;28;20045;-75
2022/06/24 08:49:34;;;;;;;6.90;4.63;;;20.50;99.90;;;;;;5067018;28;20465;-76
2022/06/24 08:52:00;;;;;;;6.78;4.60;;;20.40;99.90;;;;;;5064813;28;20044;-75
2022/06/24 08:54:32;;;;;;;10.20;4.63;;;20.30;99.90;;;;;;5068777;28;20412;-75
2022/06/24 08:56:58;;;;;;;10.30;5.03;;;20.20;99.90;;;;;;5069098;28;20087;-75
2022/06/24 08:59:26;;;;;;;7.95;5.35;;;20.20;99.90;;;;;;5057983;28;20090;-75
2022/06/24 09:01:52;;;;;;;12.27;5.57;;;20.10;99.90;;;;;;5062682;28;20045;-76
2022/06/24 09:04:22;;;;;;;10.73;5.47;;;20.00;99.90;;;;;;5071268;28;20033;-76
2022/06/24 09:06:47;;;;;;;9.52;5.00;;;19.90;99.90;;;;;;5062168;28;20040;-75
2022/06/24 09:09:26;;;;;;;8.00;5.07;;;19.80;99.90;;;;;;5070874;28;20043;-75
2022/06/24 09:11:57;;;;;;;8.68;5.13;;;19.80;99.90;;;;;;5063366;28;20029;-75
2022/06/24 09:14:42;;;;;;;6.68;5.03;;;19.80;99.90;;;;;;5073252;28;20509;-74
2022/06/24 09:17:10;;;;;;;8.30;4.60;;;19.70;99.90;;;;;;5063611;28;20041;-75
2022/06/24 09:19:36;;;;;;;9.38;4.63;;;19.60;99.90;;;;;;5057645;28;20049;-74
2022/06/24 09:22:02;;;;;;;8.40;5.07;;;19.50;99.90;;;;;;5059019;28;20037;-75
2022/06/24 09:24:45;;;;;;;6.85;4.43;;;19.50;99.90;;;;;;5052300;28;20037;-74
2022/06/24 09:27:11;;;;;;;6.00;4.03;;;19.40;99.90;;;;;;5041948;28;20425;-75
2022/06/24 09:29:37;;;;;;;7.03;4.35;;;19.50;99.90;;;;;;5051071;28;20040;-75
2022/06/24 09:32:08;;;;;;;7.00;4.50;;;19.50;99.90;;;;;;5061597;28;20037;-74
2022/06/24 09:34:33;;;;;;;6.43;4.20;;;19.50;99.90;;;;;;5059633;28;20052;-74
2022/06/24 09:36:59;;;;;;;7.65;4.57;;;19.50;99.90;;;;;;5053416;28;20045;-74
2022/06/24 09:39:25;;;;;;;6.57;3.70;;;19.60;99.90;;;;;;5062297;28;20036;-75
2022/06/24 09:41:55;;;;;;;5.32;3.38;;;19.60;99.90;;;;;;5060590;28;20044;-75
2022/06/24 09:44:21;;;;;;;5.95;3.55;;;19.70;99.90;;;;;;5063061;28;20044;-76
2022/06/24 09:47:00;;;;;;;5.78;3.60;;;19.60;99.90;;;;;;5055591;28;20041;-75
2022/06/24 09:49:31;;;;;;;6.28;3.63;;;19.70;99.90;;;;;;5060563;28;20040;-74
2022/06/24 09:51:57;;;;;;;6.20;3.50;;;19.70;99.90;;;;;;5063635;28;20029;-74
2022/06/24 09:54:24;;;;;;;9.48;3.92;;;19.80;99.90;;;;;;5067102;28;20032;-74
2022/06/24 09:56:50;;;;;;;5.85;3.50;;;19.70;99.90;;;;;;5067621;28;20459;-74
2022/06/24 10:02:01;;;;;;;5.50;3.42;;;19.80;99.90;;;;;;5057033;28;20063;-74
2022/06/24 10:04:27;;;;;;;7.55;4.68;;;19.90;99.90;;;;;;5070176;28;20082;-74
2022/06/24 10:06:55;;;;;;;6.03;3.47;;;19.90;99.90;;;;;;5060914;28;20121;-75
2022/06/24 10:09:26;;;;;;;4.68;3.38;;;19.90;99.90;;;;;;5052969;28;20032;-74
2022/06/24 10:11:54;;;;;;;4.82;3.72;;;20.00;99.90;;;;;;5061793;28;20036;-74
2022/06/24 10:14:20;;;;;;;8.18;3.97;;;20.00;99.90;;;;;;5071622;28;20036;-74
2022/06/24 10:16:48;;;;;;;4.93;3.67;;;20.00;99.90;;;;;;5064326;28;20128;-74
2022/06/24 10:19:16;;;;;;;8.00;4.15;;;20.10;99.90;;;;;;5055412;28;20374;-74
2022/06/24 10:21:42;;;;;;;5.97;4.20;;;20.10;99.90;;;;;;5068450;28;20052;-75
2022/06/24 10:24:13;;;;;;;6.53;4.30;;;20.20;99.90;;;;;;5057402;28;20406;-74
2022/06/24 10:26:40;;;;;;;5.90;4.30;;;20.10;99.90;;;;;;5067732;28;20079;-74
2022/06/24 10:29:07;;;;;;;6.00;4.75;;;20.10;99.90;;;;;;5058012;28;20451;-75
2022/06/24 10:31:41;;;;;;;8.15;5.30;;;20.20;99.90;;;;;;5038276;28;20040;-75
2022/06/24 10:34:08;;;;;;;7.75;5.13;;;20.20;99.90;;;;;;5057295;28;20124;-74
2022/06/24 10:36:33;;;;;;;6.95;5.20;;;20.10;99.90;;;;;;5056983;28;20036;-74
2022/06/24 10:39:15;;;;;;;7.25;5.78;;;20.10;99.90;;;;;;5067698;28;20040;-74
2022/06/24 10:41:41;;;;;;;6.55;5.18;;;20.10;99.90;;;;;;5038169;28;20059;-74
2022/06/24 10:44:28;;;;;;;8.32;5.63;;;20.10;99.90;;;;;;5057000;28;20048;-75
2022/06/24 10:47:10;;;;;;;9.88;5.93;;;20.20;99.90;;;;;;5055103;28;20041;-74
2022/06/24 10:50:00;;;;;;;7.13;5.30;;;20.20;99.90;;;;;;5059096;28;20056;-74
2022/06/24 10:52:38;;;;;;;6.43;5.40;;;20.20;99.90;;;;;;5032452;28;20041;-74
2022/06/24 10:55:20;;;;;;;11.85;6.25;;;20.20;99.90;;;;;;5059672;28;20045;-74
2022/06/24 10:57:46;;;;;;;9.63;5.97;;;20.20;99.90;;;;;;5061264;28;20055;-74
2022/06/24 11:00:25;;;;;;;9.40;6.45;;;20.30;99.90;;;;;;5063028;28;20036;-74
2022/06/24 11:03:12;;;;;;;8.30;6.53;;;20.30;99.90;;;;;;5059883;28;20117;-74
2022/06/24 11:05:40;;;;;;;9.68;6.05;;;20.40;99.90;;;;;;5052573;28;20135;-74
2022/06/24 11:08:12;;;;;;;7.05;6.30;;;20.40;99.90;;;;;;5062603;28;20381;-74
2022/06/24 11:10:38;;;;;;;;;;;20.50;99.90;;;;;;5052945;28;20466;-75
2022/06/24 11:13:03;;;;;;;7.47;6.38;;;20.50;99.90;;;;;;5060789;28;20015;-75
2022/06/24 11:15:39;;;;;;;9.48;7.90;;;20.50;99.90;;;;;;5061893;28;20032;-74
2022/06/24 11:18:13;;;;;;;8.38;6.40;;;20.50;99.90;;;;;;5058417;28;20073;-74
2022/06/24 11:20:46;;;;;;;8.40;7.60;;;20.50;99.90;;;;;;5067374;28;20040;-74
2022/06/24 11:23:15;;;;;;;8.55;7.30;;;20.50;99.90;;;;;;5046432;28;20467;-74
2022/06/24 11:25:46;;;;;;;9.65;8.20;;;20.40;99.90;;;;;;5069250;28;20052;-74
2022/06/24 11:28:25;;;;;;;9.00;8.10;;;20.40;99.90;;;;;;5053126;28;20119;-75
2022/06/24 11:30:52;;;;;;;10.00;8.05;;;20.50;99.90;;;;;;5044184;28;20119;-74
2022/06/24 11:33:19;;;;;;;10.90;8.30;;;20.50;99.90;;;;;;5055134;28;20457;-75
2022/06/24 11:35:47;;;;;;;10.35;8.98;;;20.60;99.90;;;;;;5052581;28;20051;-74
2022/06/24 11:38:12;;;;;;;11.15;9.80;;;20.70;99.90;;;;;;5064056;28;20083;-74
2022/06/24 11:40:39;;;;;;;12.25;10.95;;;20.80;99.90;;;;;;5065063;28;20040;-75
2022/06/24 11:43:13;;;;;;;12.05;9.57;;;20.80;99.90;;;;;;5058565;28;20545;-74
2022/06/24 11:45:45;;;;;;;12.32;10.13;;;20.90;99.90;;;;;;5042137;28;20050;-75
2022/06/24 11:48:18;;;;;;;10.52;9.43;;;21.00;99.90;;;;;;5050070;28;20045;-75
2022/06/24 11:50:44;;;;;;;11.32;9.80;;;21.10;99.90;;;;;;5059022;28;20037;-75
2022/06/24 11:53:09;;;;;;;13.52;9.80;;;21.20;99.90;;;;;;5064722;28;20033;-75
2022/06/24 11:55:37;;;;;;;12.40;11.10;;;21.30;99.90;;;;;;5065675;28;20044;-75
2022/06/24 11:58:05;;;;;;;12.82;11.18;;;21.40;99.90;;;;;;5065939;28;20508;-75
2022/06/24 12:00:38;;;;;;;12.73;11.43;;;21.50;99.90;;;;;;5047969;28;20130;-75
2022/06/24 12:03:08;;;;;;;13.15;11.85;;;21.60;99.90;;;;;;5060984;28;20037;-75
2022/06/24 12:05:37;;;;;;;11.60;10.23;;;21.70;99.90;;;;;;5066227;28;20050;-75
2022/06/24 12:08:03;;;;;;;11.15;10.05;;;21.80;99.90;;;;;;5060983;28;20052;-75
2022/06/24 12:10:29;;;;;;;12.82;11.52;;;21.90;99.90;;;;;;5066299;28;20105;-76
2022/06/24 12:13:05;;;;;;;12.45;10.68;;;22.00;99.90;;;;;;5063336;28;20469;-77
2022/06/24 12:15:37;;;;;;;12.00;10.77;;;22.10;99.90;;;;;;5053774;28;20058;-77
2022/06/24 12:18:12;;;;;;;;;;;22.20;99.90;;;;;;5038046;28;20051;-77
2022/06/24 12:20:38;;;;;;;12.85;11.48;;;22.30;99.90;;;;;;5058030;28;19962;-76
2022/06/24 12:23:17;;;;;;;13.23;11.75;;;22.30;99.90;;;;;;5058655;28;20049;-75
2022/06/24 12:25:47;;;;;;;13.50;11.45;;;22.30;99.90;;;;;;5069198;28;20048;-76
2022/06/24 12:28:15;;;;;;;11.95;10.52;;;22.40;99.90;;;;;;5055399;28;20645;-76
2022/06/24 12:30:41;;;;;;;13.48;11.15;;;22.40;99.90;;;;;;5062479;28;20044;-76
2022/06/24 12:33:14;;;;;;;12.27;11.00;;;22.50;99.90;;;;;;5067708;28;20499;-76
2022/06/24 12:35:45;;;;;;;14.82;12.00;;;22.50;99.90;;;;;;5067501;28;20041;-77
2022/06/24 12:38:12;;;;;;;12.87;11.07;;;22.50;99.90;;;;;;5067524;28;20120;-76
2022/06/24 12:40:39;;;;;;;12.20;9.88;;;22.50;99.90;;;;;;5061577;28;20558;-77
2022/06/24 12:43:13;;;;;;;11.55;10.35;;;22.60;99.90;;;;;;5057969;28;20029;-77
2022/06/24 12:45:43;;;;;;;12.63;11.30;;;22.70;99.90;;;;;;5050868;28;20040;-76
2022/06/24 12:51:04;;;;;;;12.20;10.90;;;22.80;99.90;;;;;;5064449;28;20074;-76
2022/06/24 12:53:30;;;;;;;13.60;12.20;;;22.80;99.90;;;;;;5063124;28;20035;-77
2022/06/24 12:55:57;;;;;;;12.93;11.63;;;22.90;99.90;;;;;;5067214;28;20049;-76
2022/06/24 12:58:22;;;;;;;13.15;11.85;;;22.80;99.90;;;;;;5070768;28;20032;-77
2022/06/24 13:00:48;;;;;;;13.98;12.48;;;22.70;99.90;;;;;;5067112;28;20071;-77
2022/06/24 13:03:20;;;;;;;18.08;13.50;;;22.60;99.90;;;;;;5062164;28;20036;-77